Time;durP1;ratioP1;P1;durP2;ratioP2;P2;SDS_P1;SDS_P2;PMS_P1;PMS_P2;Temp;Humidity;BMP_temperature;BMP_pressure;BME280_temperature;BME280_humidity;BME280_pressure;Samples;Min_cycle;Max_cycle;Signal;HPM_P1;HPM_P2
2023/05/04 00:00:48;;;;;;;19.17;14.55;;;;;;;;;;5020721;28;20136;-71
2023/05/04 00:03:13;;;;;;;21.77;14.68;;;;;;;;;;5018057;28;20072;-71
2023/05/04 00:05:39;;;;;;;25.23;14.95;;;;;;;;;;5016380;28;20049;-71
2023/05/04 00:08:04;;;;;;;21.10;14.02;;;;;;;;;;5020635;28;20123;-73
2023/05/04 00:10:30;;;;;;;21.15;15.32;;;;;;;;;;5020390;28;20075;-69
2023/05/04 00:12:55;;;;;;;19.10;14.52;;;;;;;;;;5018297;28;20466;-70
2023/05/04 00:15:21;;;;;;;23.83;15.32;;;;;;;;;;5019636;28;20076;-70
2023/05/04 00:17:46;;;;;;;21.55;15.13;;;;;;;;;;5019894;28;20037;-71
2023/05/04 00:20:12;;;;;;;20.38;14.50;;;;;;;;;;5019978;28;20796;-70
2023/05/04 00:22:38;;;;;;;25.15;15.43;;;;;;;;;;5020336;28;20049;-72
2023/05/04 00:25:05;;;;;;;24.65;15.70;;;;;;;;;;5018323;28;20509;-71
2023/05/04 00:27:30;;;;;;;21.63;14.77;;;;;;;;;;5018870;28;20072;-69
2023/05/04 00:29:56;;;;;;;21.65;15.50;;;;;;;;;;5020015;28;20570;-70
2023/05/04 00:32:21;;;;;;;21.83;14.05;;;;;;;;;;5020309;28;20869;-69
2023/05/04 00:34:47;;;;;;;23.48;16.13;;;;;;;;;;5020463;28;20561;-69
2023/05/04 00:37:13;;;;;;;23.42;16.88;;;;;;;;;;5020418;28;20185;-70
2023/05/04 00:39:38;;;;;;;23.27;16.77;;;;;;;;;;5019340;28;20640;-70
2023/05/04 00:42:04;;;;;;;26.90;16.08;;;;;;;;;;5018900;28;20071;-71
2023/05/04 00:44:29;;;;;;;24.30;15.98;;;;;;;;;;5035639;28;20045;-71
2023/05/04 00:46:55;;;;;;;24.70;17.35;;;;;;;;;;5020182;28;20119;-71
2023/05/04 00:49:21;;;;;;;25.80;16.83;;;;;;;;;;5017984;28;20091;-71
2023/05/04 00:51:48;;;;;;;26.30;18.05;;;;;;;;;;5034751;28;20045;-71
2023/05/04 00:54:16;;;;;;;24.05;17.30;;;;;;;;;;5038619;28;20470;-71
2023/05/04 00:56:42;;;;;;;26.95;18.30;;;;;;;;;;5020335;28;20388;-69
2023/05/04 00:59:08;;;;;;;27.52;19.17;;;;;;;;;;5020228;28;20044;-69
2023/05/04 01:01:34;;;;;;;27.52;17.77;;;;;;;;;;5013813;28;20128;-69
2023/05/04 01:04:00;;;;;;;29.17;19.30;;;;;;;;;;5034912;28;20503;-68
2023/05/04 01:06:46;;;;;;;30.52;19.90;;;;;;;;;;5016869;28;20064;-68
2023/05/04 01:09:33;;;;;;;28.95;18.33;;;;;;;;;;5023074;28;20037;-71
2023/05/04 01:12:21;;;;;;;31.63;19.48;;;;;;;;;;5009397;28;20049;-71
2023/05/04 01:14:47;;;;;;;28.30;18.17;;;;;;;;;;5020053;28;20490;-68
2023/05/04 01:17:13;;;;;;;28.90;19.02;;;;;;;;;;5013632;28;20042;-69
2023/05/04 01:19:39;;;;;;;29.23;19.90;;;;;;;;;;5032696;28;20147;-72
2023/05/04 01:22:04;;;;;;;29.40;19.95;;;;;;;;;;5016359;28;20041;-69
2023/05/04 01:24:30;;;;;;;26.58;18.70;;;;;;;;;;5023742;28;20469;-69
2023/05/04 01:27:07;;;;;;;30.33;19.25;;;;;;;;;;5038802;28;20771;-69
2023/05/04 01:29:41;;;;;;;26.27;18.08;;;;;;;;;;5023122;28;20048;-69
2023/05/04 01:32:07;;;;;;;29.55;20.27;;;;;;;;;;5037541;28;20623;-71
2023/05/04 01:34:34;;;;;;;32.65;21.70;;;;;;;;;;5019412;28;20041;-69
2023/05/04 01:37:00;;;;;;;33.80;20.05;;;;;;;;;;5022231;28;20482;-71
2023/05/04 01:39:26;;;;;;;32.75;20.42;;;;;;;;;;5038129;28;20041;-69
2023/05/04 01:41:52;;;;;;;30.02;19.65;;;;;;;;;;5038775;28;20045;-70
2023/05/04 01:44:18;;;;;;;30.27;20.13;;;;;;;;;;5018543;28;20052;-71
2023/05/04 01:46:43;;;;;;;32.60;18.95;;;;;;;;;;5020742;28;20160;-71
2023/05/04 01:49:09;;;;;;;32.60;20.05;;;;;;;;;;5038586;28;20052;-71
2023/05/04 01:51:34;;;;;;;29.70;19.85;;;;;;;;;;5019074;28;20049;-71
2023/05/04 01:54:00;;;;;;;29.80;20.08;;;;;;;;;;5009002;28;20099;-71
2023/05/04 01:56:25;;;;;;;31.95;19.67;;;;;;;;;;5036118;28;20059;-71
2023/05/04 01:58:51;;;;;;;35.47;21.77;;;;;;;;;;5037271;28;20065;-70
2023/05/04 02:01:16;;;;;;;36.90;22.35;;;;;;;;;;5037143;28;20038;-71
2023/05/04 02:03:42;;;;;;;37.20;21.75;;;;;;;;;;5036031;28;20474;-70
2023/05/04 02:06:08;;;;;;;35.40;20.02;;;;;;;;;;5015374;28;20042;-70
2023/05/04 02:08:34;;;;;;;32.55;20.85;;;;;;;;;;5020641;28;20048;-70
2023/05/04 02:11:00;;;;;;;35.33;21.73;;;;;;;;;;5021527;28;20132;-70
2023/05/04 02:13:25;;;;;;;35.67;22.38;;;;;;;;;;5021340;28;20049;-70
2023/05/04 02:15:50;;;;;;;36.20;21.20;;;;;;;;;;5036579;28;20395;-70
2023/05/04 02:18:16;;;;;;;34.33;20.90;;;;;;;;;;5021222;28;20037;-70
2023/05/04 02:20:41;;;;;;;34.20;21.30;;;;;;;;;;5036681;28;20052;-70
2023/05/04 02:23:07;;;;;;;39.47;22.33;;;;;;;;;;5021483;28;20075;-70
2023/05/04 02:25:32;;;;;;;33.88;20.88;;;;;;;;;;5036501;28;20049;-70
2023/05/04 02:27:57;;;;;;;31.85;21.02;;;;;;;;;;5015873;28;20045;-70
2023/05/04 02:30:23;;;;;;;33.47;20.85;;;;;;;;;;5036565;28;20185;-69
2023/05/04 02:32:49;;;;;;;36.47;21.02;;;;;;;;;;5011937;28;20132;-70
2023/05/04 02:35:14;;;;;;;38.92;22.83;;;;;;;;;;5036662;28;20505;-70
2023/05/04 02:37:40;;;;;;;36.83;22.40;;;;;;;;;;5036415;28;20049;-70
2023/05/04 02:40:06;;;;;;;36.58;22.27;;;;;;;;;;5020323;28;20048;-69
2023/05/04 02:42:31;;;;;;;31.95;21.13;;;;;;;;;;5021037;28;20057;-70
2023/05/04 02:44:57;;;;;;;38.72;23.20;;;;;;;;;;5036161;28;20061;-70
2023/05/04 02:47:22;;;;;;;45.55;24.15;;;;;;;;;;5014720;28;20045;-70
2023/05/04 02:49:47;;;;;;;40.40;22.20;;;;;;;;;;5017320;28;20058;-72
2023/05/04 02:52:13;;;;;;;33.42;21.67;;;;;;;;;;5036550;28;20045;-70
2023/05/04 02:54:38;;;;;;;37.67;21.70;;;;;;;;;;5018116;28;20047;-71
2023/05/04 02:57:05;;;;;;;42.05;24.90;;;;;;;;;;5021452;28;20047;-69
2023/05/04 02:59:30;;;;;;;39.97;24.63;;;;;;;;;;5015855;28;20034;-71
2023/05/04 03:01:56;;;;;;;42.88;24.50;;;;;;;;;;5016097;28;20072;-70
2023/05/04 03:04:21;;;;;;;41.42;23.88;;;;;;;;;;5020673;28;20041;-70
2023/05/04 03:06:46;;;;;;;41.05;23.38;;;;;;;;;;5020659;28;20152;-69
2023/05/04 03:09:12;;;;;;;38.83;23.00;;;;;;;;;;5036251;28;20047;-70
2023/05/04 03:11:38;;;;;;;38.28;22.70;;;;;;;;;;5033751;28;20052;-70
2023/05/04 03:14:03;;;;;;;39.17;23.45;;;;;;;;;;5001617;28;20053;-69
2023/05/04 03:16:28;;;;;;;36.25;22.80;;;;;;;;;;5017426;28;20038;-69
2023/05/04 03:18:54;;;;;;;39.58;23.73;;;;;;;;;;5018914;28;20128;-69
2023/05/04 03:21:20;;;;;;;41.17;23.95;;;;;;;;;;5019608;28;20045;-70
2023/05/04 03:23:46;;;;;;;39.78;23.48;;;;;;;;;;5017346;28;20127;-69
2023/05/04 03:26:11;;;;;;;41.28;23.25;;;;;;;;;;5035585;28;20120;-69
2023/05/04 03:28:37;;;;;;;39.53;23.17;;;;;;;;;;5020157;28;20043;-69
2023/05/04 03:31:02;;;;;;;39.53;23.58;;;;;;;;;;5035732;28;20071;-71
2023/05/04 03:33:28;;;;;;;35.08;21.60;;;;;;;;;;5032755;28;20132;-69
2023/05/04 03:35:55;;;;;;;37.30;22.35;;;;;;;;;;5036274;28;20497;-70
2023/05/04 03:38:20;;;;;;;41.80;23.00;;;;;;;;;;5020122;28;20095;-69
2023/05/04 03:40:45;;;;;;;48.28;27.13;;;;;;;;;;5021135;28;20038;-69
2023/05/04 03:43:12;;;;;;;44.70;24.85;;;;;;;;;;5035689;28;20498;-69
2023/05/04 03:45:38;;;;;;;54.67;27.00;;;;;;;;;;5034511;28;20077;-70
2023/05/04 03:48:04;;;;;;;57.83;29.17;;;;;;;;;;5020820;28;20132;-71
2023/05/04 03:50:30;;;;;;;63.17;32.85;;;;;;;;;;5018752;28;20053;-70
2023/05/04 03:52:56;;;;;;;45.50;26.17;;;;;;;;;;5035544;28;20063;-73
2023/05/04 03:55:23;;;;;;;44.22;26.02;;;;;;;;;;5017614;28;20051;-72
2023/05/04 03:57:49;;;;;;;42.03;23.02;;;;;;;;;;5035137;28;20046;-72
2023/05/04 04:00:15;;;;;;;48.95;27.90;;;;;;;;;;5018610;28;20567;-71
2023/05/04 04:02:40;;;;;;;52.15;26.02;;;;;;;;;;5020370;28;20111;-71
2023/05/04 04:05:08;;;;;;;47.58;25.42;;;;;;;;;;5032401;28;20529;-71
2023/05/04 04:07:35;;;;;;;43.40;24.52;;;;;;;;;;5016253;28;20069;-70
2023/05/04 04:10:00;;;;;;;44.92;25.63;;;;;;;;;;5033465;28;20128;-71
2023/05/04 04:12:26;;;;;;;44.00;25.88;;;;;;;;;;5027007;28;20045;-70
2023/05/04 04:14:51;;;;;;;44.92;25.38;;;;;;;;;;5007700;28;20051;-70
2023/05/04 04:17:17;;;;;;;40.88;23.75;;;;;;;;;;5012199;28;20042;-69
2023/05/04 04:19:42;;;;;;;40.83;25.05;;;;;;;;;;5009014;28;20509;-70
2023/05/04 04:22:08;;;;;;;41.10;24.63;;;;;;;;;;5010057;28;20044;-71
2023/05/04 04:24:33;;;;;;;39.58;24.50;;;;;;;;;;5012774;28;20429;-70
2023/05/04 04:26:58;;;;;;;44.50;25.95;;;;;;;;;;5010481;28;20041;-70
2023/05/04 04:29:24;;;;;;;39.92;24.15;;;;;;;;;;5011327;28;20054;-70
2023/05/04 04:31:50;;;;;;;43.83;25.58;;;;;;;;;;5010426;28;20043;-70
2023/05/04 04:34:16;;;;;;;42.97;23.67;;;;;;;;;;5008020;28;20091;-71
2023/05/04 04:36:42;;;;;;;44.40;25.08;;;;;;;;;;5012376;28;20128;-70
2023/05/04 04:39:08;;;;;;;44.80;25.75;;;;;;;;;;5011446;28;20073;-70
2023/05/04 04:41:33;;;;;;;43.63;22.58;;;;;;;;;;5011837;28;20166;-71
2023/05/04 04:43:58;;;;;;;40.40;23.48;;;;;;;;;;5012114;28;20041;-70
2023/05/04 04:46:24;;;;;;;33.28;20.38;;;;;;;;;;5011494;28;20529;-71
2023/05/04 04:48:52;;;;;;;32.03;18.15;;;;;;;;;;5012980;28;20060;-71
2023/05/04 04:51:17;;;;;;;30.20;17.38;;;;;;;;;;5012657;28;20102;-71
2023/05/04 04:53:43;;;;;;;30.23;19.20;;;;;;;;;;5009351;28;20054;-69
2023/05/04 04:56:08;;;;;;;31.75;18.70;;;;;;;;;;5012677;28;20755;-70
2023/05/04 04:58:34;;;;;;;34.88;19.55;;;;;;;;;;5010458;28;20029;-69
2023/05/04 05:01:02;;;;;;;33.38;19.25;;;;;;;;;;5012024;28;20532;-70
2023/05/04 05:03:27;;;;;;;33.78;19.02;;;;;;;;;;5009593;28;20494;-69
2023/05/04 05:05:54;;;;;;;32.65;19.92;;;;;;;;;;5012435;28;20045;-71
2023/05/04 05:08:22;;;;;;;31.33;18.88;;;;;;;;;;5027600;28;20056;-69
2023/05/04 05:10:47;;;;;;;29.17;17.35;;;;;;;;;;5010366;28;20056;-70
2023/05/04 05:13:13;;;;;;;22.67;14.88;;;;;;;;;;5010572;28;20050;-70
2023/05/04 05:15:38;;;;;;;19.15;14.73;;;;;;;;;;5012845;28;20072;-70
2023/05/04 05:18:04;;;;;;;24.67;13.80;;;;;;;;;;5011893;28;20053;-70
2023/05/04 05:20:29;;;;;;;17.25;12.23;;;;;;;;;;5012637;28;20156;-71
2023/05/04 05:22:54;;;;;;;18.40;12.90;;;;;;;;;;5012744;28;20052;-70
2023/05/04 05:25:20;;;;;;;17.45;12.60;;;;;;;;;;5010225;28;20056;-74
2023/05/04 05:27:45;;;;;;;21.45;12.88;;;;;;;;;;5010600;28;20046;-70
2023/05/04 05:30:11;;;;;;;16.77;11.95;;;;;;;;;;5011074;28;20541;-70
2023/05/04 05:32:37;;;;;;;19.58;12.40;;;;;;;;;;5012326;28;20466;-71
2023/05/04 05:35:06;;;;;;;17.58;11.77;;;;;;;;;;5015458;28;21043;-71
2023/05/04 05:37:31;;;;;;;15.77;12.10;;;;;;;;;;5019308;28;21127;-73
2023/05/04 05:39:57;;;;;;;16.67;11.93;;;;;;;;;;5019849;28;20712;-71
2023/05/04 05:42:23;;;;;;;14.88;10.52;;;;;;;;;;5019803;28;20045;-71
2023/05/04 05:44:48;;;;;;;15.90;11.82;;;;;;;;;;5019544;28;20115;-71
2023/05/04 05:47:14;;;;;;;19.00;12.27;;;;;;;;;;5018922;28;20037;-71
2023/05/04 05:49:40;;;;;;;16.40;11.20;;;;;;;;;;5019098;28;20612;-70
2023/05/04 05:52:05;;;;;;;17.00;11.95;;;;;;;;;;5022169;28;20049;-71
2023/05/04 05:54:31;;;;;;;19.00;11.63;;;;;;;;;;5023427;28;20093;-71
2023/05/04 05:56:57;;;;;;;17.88;11.30;;;;;;;;;;5018867;28;20147;-71
2023/05/04 05:59:23;;;;;;;16.88;10.25;;;;;;;;;;5022382;28;20050;-71
2023/05/04 06:01:48;;;;;;;12.57;10.30;;;;;;;;;;5022893;28;20128;-71
2023/05/04 06:04:13;;;;;;;11.18;8.98;;;;;;;;;;5023549;28;20045;-71
2023/05/04 06:06:39;;;;;;;12.20;8.63;;;;;;;;;;5022970;28;20073;-71
2023/05/04 06:09:04;;;;;;;12.45;9.55;;;;;;;;;;5022268;28;20045;-71
2023/05/04 06:11:30;;;;;;;12.82;9.35;;;;;;;;;;5022437;28;20053;-71
2023/05/04 06:13:56;;;;;;;13.07;8.77;;;;;;;;;;5022609;28;20067;-71
2023/05/04 06:16:21;;;;;;;9.77;8.48;;;;;;;;;;5022880;28;20076;-72
2023/05/04 06:18:47;;;;;;;13.38;8.18;;;;;;;;;;5022360;28;20122;-72
2023/05/04 06:21:13;;;;;;;11.35;7.85;;;;;;;;;;5037834;28;20076;-71
2023/05/04 06:23:39;;;;;;;9.98;8.15;;;;;;;;;;5020994;28;20041;-72
2023/05/04 06:26:07;;;;;;;11.35;8.13;;;;;;;;;;5022712;28;20819;-72
2023/05/04 06:28:33;;;;;;;9.05;7.63;;;;;;;;;;5022738;28;20050;-73
2023/05/04 06:30:59;;;;;;;9.93;8.02;;;;;;;;;;5021771;28;20045;-71
2023/05/04 06:33:24;;;;;;;9.95;7.80;;;;;;;;;;5022212;28;20410;-71
2023/05/04 06:35:51;;;;;;;10.27;7.85;;;;;;;;;;5022379;28;20053;-72
2023/05/04 06:38:17;;;;;;;9.23;7.65;;;;;;;;;;5023025;28;20053;-71
2023/05/04 06:40:42;;;;;;;12.80;8.50;;;;;;;;;;5021105;28;20132;-72
2023/05/04 06:43:08;;;;;;;8.10;7.30;;;;;;;;;;5022381;28;20120;-71
2023/05/04 06:45:36;;;;;;;10.18;7.90;;;;;;;;;;5021778;28;20053;-71
2023/05/04 06:48:03;;;;;;;12.02;8.07;;;;;;;;;;5021967;28;20120;-71
2023/05/04 06:50:29;;;;;;;8.57;7.43;;;;;;;;;;5022328;28;20049;-72
2023/05/04 06:53:09;;;;;;;10.63;7.97;;;;;;;;;;5021572;28;20528;-72
2023/05/04 06:55:36;;;;;;;10.77;7.72;;;;;;;;;;5021522;28;20046;-72
2023/05/04 06:58:02;;;;;;;10.73;8.05;;;;;;;;;;5022169;28;20033;-70
2023/05/04 07:00:27;;;;;;;11.60;7.60;;;;;;;;;;5022306;28;20041;-72
2023/05/04 07:02:53;;;;;;;9.35;7.25;;;;;;;;;;5018990;28;20033;-71
2023/05/04 07:05:20;;;;;;;10.27;7.53;;;;;;;;;;5022046;28;20778;-71
2023/05/04 07:07:45;;;;;;;10.20;8.00;;;;;;;;;;5021818;28;20554;-72
2023/05/04 07:10:11;;;;;;;9.00;6.78;;;;;;;;;;5019512;28;20136;-71
2023/05/04 07:12:36;;;;;;;10.48;7.05;;;;;;;;;;5022074;28;20037;-71
2023/05/04 07:15:02;;;;;;;10.93;6.45;;;;;;;;;;5021285;28;20140;-71
2023/05/04 07:17:31;;;;;;;8.32;6.80;;;;;;;;;;5036620;28;20038;-71
2023/05/04 07:19:56;;;;;;;9.13;7.28;;;;;;;;;;5021794;28;20060;-71
2023/05/04 07:22:21;;;;;;;9.80;6.53;;;;;;;;;;5022058;28;20045;-72
2023/05/04 07:24:47;;;;;;;13.57;7.38;;;;;;;;;;5016599;28;20075;-71
2023/05/04 07:27:12;;;;;;;9.38;7.13;;;;;;;;;;5021835;28;20045;-70
2023/05/04 07:29:38;;;;;;;9.10;7.68;;;;;;;;;;5020234;28;20041;-73
2023/05/04 07:32:03;;;;;;;12.93;7.13;;;;;;;;;;5020849;28;20454;-72
2023/05/04 07:34:30;;;;;;;9.70;7.47;;;;;;;;;;5021377;28;20048;-72
2023/05/04 07:36:55;;;;;;;11.23;7.82;;;;;;;;;;5020374;28;20051;-72
2023/05/04 07:39:22;;;;;;;10.70;7.22;;;;;;;;;;5020088;28;20045;-72
2023/05/04 07:41:50;;;;;;;7.75;6.60;;;;;;;;;;5020650;28;20049;-72
2023/05/04 07:44:16;;;;;;;8.95;6.93;;;;;;;;;;5021194;28;20087;-72
2023/05/04 07:46:41;;;;;;;8.15;7.07;;;;;;;;;;5020100;28;20044;-72
2023/05/04 07:49:06;;;;;;;10.27;7.22;;;;;;;;;;5018492;28;20033;-71
2023/05/04 07:51:32;;;;;;;14.18;7.35;;;;;;;;;;5018819;28;20545;-71
2023/05/04 07:53:57;;;;;;;11.55;7.28;;;;;;;;;;5019532;28;20141;-72
2023/05/04 07:56:23;;;;;;;9.60;7.07;;;;;;;;;;5021088;28;20394;-71
2023/05/04 07:58:48;;;;;;;8.63;7.20;;;;;;;;;;5016123;28;20053;-71
2023/05/04 08:01:13;;;;;;;8.35;7.22;;;;;;;;;;5015185;28;20037;-70
2023/05/04 08:03:39;;;;;;;8.25;7.22;;;;;;;;;;5020468;28;20059;-72
2023/05/04 08:06:06;;;;;;;8.07;7.28;;;;;;;;;;5020877;28;20059;-71
2023/05/04 08:08:31;;;;;;;6.90;6.22;;;;;;;;;;5015966;28;20730;-71
2023/05/04 08:10:57;;;;;;;9.82;6.95;;;;;;;;;;5020681;28;20107;-71
2023/05/04 08:13:22;;;;;;;9.57;6.45;;;;;;;;;;5019877;28;20252;-72
2023/05/04 08:15:48;;;;;;;8.27;6.53;;;;;;;;;;5018127;28;20041;-72
2023/05/04 08:18:13;;;;;;;11.38;6.85;;;;;;;;;;5020935;28;20175;-72
2023/05/04 08:20:38;;;;;;;7.22;6.53;;;;;;;;;;5015730;28;20044;-72
2023/05/04 08:23:04;;;;;;;7.85;7.05;;;;;;;;;;5035519;28;20042;-72
2023/05/04 08:25:29;;;;;;;6.90;5.22;;;;;;;;;;5020297;28;20042;-73
2023/05/04 08:27:55;;;;;;;8.25;6.55;;;;;;;;;;5019315;28;20049;-73
2023/05/04 08:30:21;;;;;;;8.30;6.53;;;;;;;;;;5014568;28;20410;-73
2023/05/04 08:32:49;;;;;;;6.65;5.95;;;;;;;;;;5018898;28;20060;-72
2023/05/04 08:35:15;;;;;;;6.72;5.97;;;;;;;;;;5020452;28;20158;-71
2023/05/04 08:37:40;;;;;;;9.43;6.55;;;;;;;;;;5020006;28;20124;-73
2023/05/04 08:40:07;;;;;;;6.38;5.78;;;;;;;;;;5020345;28;20042;-71
2023/05/04 08:42:33;;;;;;;6.72;5.40;;;;;;;;;;5019570;28;20196;-71
2023/05/04 08:44:58;;;;;;;6.03;5.30;;;;;;;;;;5020327;28;20080;-71
2023/05/04 08:47:25;;;;;;;7.45;4.70;;;;;;;;;;5019972;28;20627;-72
2023/05/04 08:49:57;;;;;;;4.80;4.30;;;;;;;;;;5020214;28;20057;-72
2023/05/04 08:52:24;;;;;;;5.78;4.88;;;;;;;;;;5019432;28;20186;-71
2023/05/04 08:54:55;;;;;;;7.10;4.50;;;;;;;;;;5018773;28;20092;-71
2023/05/04 08:57:24;;;;;;;7.40;4.63;;;;;;;;;;5020666;28;20056;-72
2023/05/04 08:59:52;;;;;;;5.07;4.57;;;;;;;;;;5018704;28;20053;-72
2023/05/04 09:02:23;;;;;;;7.53;4.30;;;;;;;;;;5020049;28;20457;-72
2023/05/04 09:04:49;;;;;;;6.28;4.47;;;;;;;;;;5018946;28;20049;-71
2023/05/04 09:07:17;;;;;;;5.03;3.40;;;;;;;;;;5020225;28;20128;-72
2023/05/04 09:09:42;;;;;;;3.83;3.50;;;;;;;;;;5019710;28;20115;-71
2023/05/04 09:12:08;;;;;;;4.47;4.07;;;;;;;;;;5019889;28;20049;-71
2023/05/04 09:14:35;;;;;;;4.40;4.00;;;;;;;;;;5019330;28;20081;-72
2023/05/04 09:17:02;;;;;;;4.13;3.72;;;;;;;;;;5019959;28;20488;-71
2023/05/04 09:19:32;;;;;;;4.60;4.05;;;;;;;;;;5019445;28;20041;-72
2023/05/04 09:22:01;;;;;;;5.30;4.30;;;;;;;;;;5017231;28;20045;-72
2023/05/04 09:24:28;;;;;;;5.15;3.75;;;;;;;;;;5019959;28;20191;-72
2023/05/04 09:26:54;;;;;;;4.18;3.78;;;;;;;;;;5021856;28;20175;-72
2023/05/04 09:29:21;;;;;;;4.05;3.65;;;;;;;;;;5023873;28;20037;-72
2023/05/04 09:31:51;;;;;;;5.47;3.80;;;;;;;;;;5023004;28;20053;-72
2023/05/04 09:34:19;;;;;;;5.00;3.20;;;;;;;;;;5023669;28;20108;-71
2023/05/04 09:36:44;;;;;;;3.85;3.45;;;;;;;;;;5015054;28;20518;-72
2023/05/04 09:39:11;;;;;;;4.45;3.47;;;;;;;;;;5023741;28;20037;-72
2023/05/04 09:41:37;;;;;;;4.32;3.92;;;;;;;;;;5021446;28;20046;-72
2023/05/04 09:44:03;;;;;;;5.50;3.75;;;;;;;;;;5023432;28;20079;-71
2023/05/04 09:46:29;;;;;;;4.45;3.70;;;;;;;;;;5023234;28;20056;-72
2023/05/04 09:48:55;;;;;;;4.88;4.10;;;;;;;;;;5016017;28;20042;-72
2023/05/04 09:51:26;;;;;;;4.53;3.88;;;;;;;;;;5020460;28;20053;-73
2023/05/04 09:53:52;;;;;;;4.30;3.80;;;;;;;;;;5020641;28;20084;-72
2023/05/04 09:56:40;;;;;;;4.35;3.95;;;;;;;;;;5036365;28;20049;-72
2023/05/04 09:59:06;;;;;;;6.25;3.97;;;;;;;;;;5015775;28;20053;-72
2023/05/04 10:01:32;;;;;;;5.07;3.70;;;;;;;;;;5015390;28;20045;-72
2023/05/04 10:03:58;;;;;;;4.40;4.00;;;;;;;;;;5020839;28;20075;-72
2023/05/04 10:06:24;;;;;;;6.05;3.78;;;;;;;;;;5021121;28;20041;-72
2023/05/04 10:08:50;;;;;;;6.10;4.00;;;;;;;;;;5015919;28;20133;-72
2023/05/04 10:11:18;;;;;;;7.95;4.40;;;;;;;;;;5020430;28;20154;-71
2023/05/04 10:13:57;;;;;;;6.55;4.20;;;;;;;;;;5020640;28;20057;-72
2023/05/04 10:16:42;;;;;;;5.05;4.25;;;;;;;;;;5020519;28;20131;-71
2023/05/04 10:19:16;;;;;;;6.95;3.97;;;;;;;;;;5020960;28;20048;-71
2023/05/04 10:22:00;;;;;;;6.55;4.20;;;;;;;;;;5008165;28;20568;-70
2023/05/04 10:24:40;;;;;;;6.25;4.05;;;;;;;;;;5020229;28;20052;-71
2023/05/04 10:27:15;;;;;;;9.55;3.95;;;;;;;;;;5021469;28;20957;-70
2023/05/04 10:29:41;;;;;;;5.55;3.60;;;;;;;;;;5016796;28;20058;-70
2023/05/04 10:32:16;;;;;;;7.38;4.70;;;;;;;;;;5013206;28;21006;-71
2023/05/04 10:34:42;;;;;;;6.70;4.78;;;;;;;;;;5021108;28;20099;-70
2023/05/04 10:37:16;;;;;;;6.03;5.00;;;;;;;;;;5021134;28;20053;-71
2023/05/04 10:39:50;;;;;;;6.43;4.35;;;;;;;;;;5020803;28;20038;-70
2023/05/04 10:42:15;;;;;;;6.65;4.28;;;;;;;;;;5019102;28;20041;-71
2023/05/04 10:44:56;;;;;;;7.43;4.20;;;;;;;;;;5020477;28;20061;-71
2023/05/04 10:47:31;;;;;;;7.85;4.65;;;;;;;;;;5009262;28;20052;-71
2023/05/04 10:50:14;;;;;;;7.30;5.80;;;;;;;;;;5016121;28;20050;-71
2023/05/04 10:52:47;;;;;;;7.10;4.43;;;;;;;;;;5014462;28;20041;-71
2023/05/04 10:55:14;;;;;;;9.70;4.18;;;;;;;;;;5010865;28;20132;-71
2023/05/04 10:57:48;;;;;;;6.47;4.43;;;;;;;;;;5011787;28;20054;-71
2023/05/04 11:00:14;;;;;;;6.57;4.53;;;;;;;;;;5011591;28;20052;-71
2023/05/04 11:02:40;;;;;;;5.50;4.68;;;;;;;;;;5016581;28;20061;-71
2023/05/04 11:05:06;;;;;;;5.72;4.38;;;;;;;;;;5011355;28;20103;-71
2023/05/04 11:07:41;;;;;;;6.88;5.35;;;;;;;;;;5019492;28;20099;-71
2023/05/04 11:10:08;;;;;;;5.57;4.50;;;;;;;;;;5018731;28;20049;-71
2023/05/04 11:12:36;;;;;;;6.28;4.35;;;;;;;;;;5009860;28;20386;-72
2023/05/04 11:15:06;;;;;;;4.95;4.35;;;;;;;;;;5015916;28;20037;-71
2023/05/04 11:17:32;;;;;;;4.88;4.32;;;;;;;;;;5017719;28;20057;-70
2023/05/04 11:19:59;;;;;;;6.30;4.95;;;;;;;;;;5019979;28;20045;-69
2023/05/04 11:22:25;;;;;;;7.82;4.78;;;;;;;;;;5020364;28;20056;-72
2023/05/04 11:24:51;;;;;;;6.72;4.93;;;;;;;;;;5003315;28;20053;-69
2023/05/04 11:27:24;;;;;;;5.72;4.60;;;;;;;;;;5010594;28;20049;-70
2023/05/04 11:30:00;;;;;;;9.18;4.95;;;;;;;;;;5011615;28;20058;-70
2023/05/04 11:32:36;;;;;;;6.10;4.40;;;;;;;;;;5013175;28;20110;-70
2023/05/04 11:35:23;;;;;;;5.30;4.32;;;;;;;;;;5012489;28;20099;-70
2023/05/04 11:37:49;;;;;;;5.68;4.03;;;;;;;;;;5017695;28;20045;-70
2023/05/04 11:40:20;;;;;;;5.07;4.05;;;;;;;;;;5018970;28;20798;-69
2023/05/04 11:42:46;;;;;;;6.60;4.37;;;;;;;;;;5019227;28;20888;-68
2023/05/04 11:45:20;;;;;;;6.28;4.25;;;;;;;;;;5014501;28;20052;-71
2023/05/04 11:47:46;;;;;;;6.57;4.50;;;;;;;;;;5015072;28;20107;-71
2023/05/04 11:50:14;;;;;;;7.90;4.45;;;;;;;;;;5017572;28;20508;-69
2023/05/04 11:52:40;;;;;;;6.38;4.57;;;;;;;;;;5020028;28;20104;-68
2023/05/04 11:55:26;;;;;;;14.80;4.22;;;;;;;;;;5015810;28;20053;-68
2023/05/04 11:57:59;;;;;;;5.75;4.53;;;;;;;;;;5019199;28;20049;-69
2023/05/04 12:00:39;;;;;;;7.25;4.72;;;;;;;;;;5012158;28;20051;-70
2023/05/04 12:03:07;;;;;;;7.78;4.15;;;;;;;;;;5013694;28;20398;-69
2023/05/04 12:05:33;;;;;;;8.40;4.57;;;;;;;;;;5018282;28;20060;-69
2023/05/04 12:07:59;;;;;;;6.68;4.40;;;;;;;;;;5018515;28;20052;-69
2023/05/04 12:10:34;;;;;;;7.68;4.53;;;;;;;;;;4998545;28;20046;-75
2023/05/04 12:13:02;;;;;;;5.35;4.07;;;;;;;;;;5012418;28;20057;-72
2023/05/04 12:15:28;;;;;;;5.78;3.83;;;;;;;;;;5008079;28;20053;-74
2023/05/04 12:17:54;;;;;;;6.85;5.40;;;;;;;;;;5015060;28;20106;-72
2023/05/04 12:20:24;;;;;;;8.00;5.20;;;;;;;;;;5011427;28;20056;-71
2023/05/04 12:22:50;;;;;;;7.93;4.67;;;;;;;;;;5013470;28;20133;-71
2023/05/04 12:25:19;;;;;;;9.68;4.60;;;;;;;;;;5019488;28;20303;-71
2023/05/04 12:27:44;;;;;;;10.88;4.30;;;;;;;;;;5019382;28;20161;-73
2023/05/04 12:30:10;;;;;;;7.47;5.03;;;;;;;;;;5015119;28;20045;-70
2023/05/04 12:32:36;;;;;;;5.88;4.22;;;;;;;;;;5009139;28;20045;-70
2023/05/04 12:35:03;;;;;;;5.03;4.30;;;;;;;;;;5006616;28;20379;-73
2023/05/04 12:37:29;;;;;;;8.55;4.95;;;;;;;;;;5012889;28;20073;-74
2023/05/04 12:39:54;;;;;;;6.75;4.60;;;;;;;;;;5016976;28;20045;-77
2023/05/04 12:42:20;;;;;;;8.95;5.70;;;;;;;;;;5019840;28;20449;-70
2023/05/04 12:44:46;;;;;;;5.55;4.70;;;;;;;;;;5010736;28;20139;-75
2023/05/04 12:47:11;;;;;;;6.25;4.60;;;;;;;;;;5011679;28;20041;-71
2023/05/04 12:49:37;;;;;;;8.38;5.45;;;;;;;;;;5019194;28;20046;-74
2023/05/04 12:52:02;;;;;;;6.78;4.80;;;;;;;;;;5018641;28;20075;-75
2023/05/04 12:54:27;;;;;;;8.68;5.47;;;;;;;;;;5018772;28;20046;-74
2023/05/04 12:56:53;;;;;;;9.23;5.93;;;;;;;;;;5011971;28;20175;-72
2023/05/04 12:59:18;;;;;;;8.73;5.60;;;;;;;;;;5013968;28;20042;-74
2023/05/04 13:01:44;;;;;;;6.00;4.60;;;;;;;;;;5032725;28;20596;-71
2023/05/04 13:04:09;;;;;;;7.65;4.65;;;;;;;;;;5020197;28;20044;-71
2023/05/04 13:06:35;;;;;;;8.38;4.93;;;;;;;;;;5017290;28;20042;-70
2023/05/04 13:09:03;;;;;;;5.10;4.45;;;;;;;;;;5018089;28;20491;-70
2023/05/04 13:11:28;;;;;;;7.45;5.45;;;;;;;;;;5012416;28;20053;-71
2023/05/04 13:13:54;;;;;;;10.35;4.90;;;;;;;;;;5012702;28;20053;-70
2023/05/04 13:16:20;;;;;;;7.20;4.80;;;;;;;;;;5015586;28;20047;-75
2023/05/04 13:18:45;;;;;;;7.53;4.63;;;;;;;;;;5020475;28;20049;-71
2023/05/04 13:21:11;;;;;;;6.75;4.65;;;;;;;;;;5017702;28;20044;-73
2023/05/04 13:23:37;;;;;;;4.90;3.90;;;;;;;;;;5020157;28;20049;-75
2023/05/04 13:26:02;;;;;;;7.38;4.80;;;;;;;;;;5022170;28;20199;-72
2023/05/04 13:28:28;;;;;;;7.95;4.30;;;;;;;;;;5016078;28;20132;-70
2023/05/04 13:30:54;;;;;;;5.15;4.07;;;;;;;;;;5019887;28;20053;-71
2023/05/04 13:33:20;;;;;;;13.82;3.92;;;;;;;;;;5018567;28;20137;-70
2023/05/04 13:35:45;;;;;;;4.88;3.75;;;;;;;;;;5017144;28;20053;-70
2023/05/04 13:38:11;;;;;;;5.50;4.28;;;;;;;;;;5020088;28;20061;-70
2023/05/04 13:40:36;;;;;;;10.73;4.32;;;;;;;;;;5021057;28;20064;-71
2023/05/04 13:43:03;;;;;;;7.30;3.80;;;;;;;;;;5020596;28;20054;-73
2023/05/04 13:45:29;;;;;;;5.07;3.92;;;;;;;;;;5021010;28;20128;-70
2023/05/04 13:47:55;;;;;;;4.03;3.63;;;;;;;;;;5019316;28;20061;-71
2023/05/04 13:50:21;;;;;;;4.78;3.85;;;;;;;;;;5015479;28;20054;-69
2023/05/04 13:52:47;;;;;;;5.40;4.20;;;;;;;;;;5018498;28;20046;-70
2023/05/04 13:55:13;;;;;;;6.30;3.78;;;;;;;;;;5019665;28;20057;-72
2023/05/04 13:57:38;;;;;;;4.55;3.33;;;;;;;;;;5018965;28;20049;-69
2023/05/04 14:00:06;;;;;;;4.25;3.45;;;;;;;;;;5013628;28;20111;-72
2023/05/04 14:02:38;;;;;;;4.53;3.85;;;;;;;;;;5021220;28;20046;-69
2023/05/04 14:05:03;;;;;;;5.20;3.45;;;;;;;;;;5036404;28;20057;-73
2023/05/04 14:07:29;;;;;;;10.95;4.35;;;;;;;;;;5018751;28;20063;-74
2023/05/04 14:09:54;;;;;;;4.05;3.40;;;;;;;;;;5035810;28;20057;-73
2023/05/04 14:12:21;;;;;;;4.75;3.80;;;;;;;;;;5019629;28;20045;-71
2023/05/04 14:14:46;;;;;;;7.70;3.70;;;;;;;;;;5021112;28;20053;-70
2023/05/04 14:17:11;;;;;;;4.47;3.42;;;;;;;;;;5020686;28;20041;-71
2023/05/04 14:19:37;;;;;;;7.70;3.63;;;;;;;;;;5017942;28;20037;-74
2023/05/04 14:22:02;;;;;;;5.97;3.58;;;;;;;;;;5016503;28;20712;-72
2023/05/04 14:24:28;;;;;;;5.90;3.60;;;;;;;;;;5015494;28;20052;-72
2023/05/04 14:26:54;;;;;;;6.63;3.30;;;;;;;;;;5013231;28;20049;-70
2023/05/04 14:29:19;;;;;;;4.32;3.55;;;;;;;;;;5034133;28;20048;-70